Аэропорт: Гянджа. Гянджа

ICAO: UBBG

METAR:
2024-04-22 21:00:00
UBBG 222100Z 33008KT 9999 VCTS SCT040CB BKN083 17/11 Q1021 NOSIG
TAF:
2024-04-22 17:00:00
TAF UBBG 221700Z 2218/2318 10010KT 9999 FEW040 SCT100 TX27/2312Z TN15/2302Z 
  TEMPO 2218/2220 VRB04KT 
  BECMG 2220/2222 28010KT 
  TEMPO 2222/2304 -TSRA FEW030CB BKN060 
  TEMPO 2306/2312 30014KT